sensor_id;sensor_type;location;lat;lon;timestamp;pressure;altitude;pressure_sealevel;temperature;humidity
56582;BME280;42463;52.214;21.238;2022-12-18T00:01:51;101700.70;;;-2.82;66.29
56582;BME280;42463;52.214;21.238;2022-12-18T00:04:22;101713.04;;;-2.74;66.44
56582;BME280;42463;52.214;21.238;2022-12-18T00:06:47;101710.73;;;-2.70;66.32
56582;BME280;42463;52.214;21.238;2022-12-18T00:09:13;101715.10;;;-2.67;66.18
56582;BME280;42463;52.214;21.238;2022-12-18T00:11:39;101719.19;;;-2.66;66.07
56582;BME280;42463;52.214;21.238;2022-12-18T00:14:05;101719.84;;;-2.69;65.73
56582;BME280;42463;52.214;21.238;2022-12-18T00:16:31;101724.18;;;-2.70;66.08
56582;BME280;42463;52.214;21.238;2022-12-18T00:18:59;101725.23;;;-2.68;66.04
56582;BME280;42463;52.214;21.238;2022-12-18T00:21:24;101722.88;;;-2.65;65.79
56582;BME280;42463;52.214;21.238;2022-12-18T00:23:52;101725.20;;;-2.64;65.93
56582;BME280;42463;52.214;21.238;2022-12-18T00:26:20;101731.89;;;-2.61;65.88
56582;BME280;42463;52.214;21.238;2022-12-18T00:28:47;101736.06;;;-2.58;65.96
56582;BME280;42463;52.214;21.238;2022-12-18T00:31:16;101739.06;;;-2.56;65.85
56582;BME280;42463;52.214;21.238;2022-12-18T00:33:42;101737.96;;;-2.58;65.72
56582;BME280;42463;52.214;21.238;2022-12-18T00:36:11;101742.93;;;-2.50;65.75
56582;BME280;42463;52.214;21.238;2022-12-18T00:38:36;101747.16;;;-2.44;65.89
56582;BME280;42463;52.214;21.238;2022-12-18T00:41:01;101752.48;;;-2.40;65.61
56582;BME280;42463;52.214;21.238;2022-12-18T00:43:26;101756.70;;;-2.40;65.32
56582;BME280;42463;52.214;21.238;2022-12-18T00:45:59;101760.30;;;-2.46;65.21
56582;BME280;42463;52.214;21.238;2022-12-18T00:48:26;101760.58;;;-2.49;65.13
56582;BME280;42463;52.214;21.238;2022-12-18T00:50:52;101761.57;;;-2.56;65.10
56582;BME280;42463;52.214;21.238;2022-12-18T00:53:18;101757.38;;;-2.55;65.49
56582;BME280;42463;52.214;21.238;2022-12-18T00:55:48;101756.79;;;-2.54;65.48
56582;BME280;42463;52.214;21.238;2022-12-18T00:58:15;101757.25;;;-2.49;65.63
56582;BME280;42463;52.214;21.238;2022-12-18T01:00:44;101760.58;;;-2.47;65.49
56582;BME280;42463;52.214;21.238;2022-12-18T01:03:09;101765.77;;;-2.46;65.32
56582;BME280;42463;52.214;21.238;2022-12-18T01:05:38;101768.61;;;-2.46;65.49
56582;BME280;42463;52.214;21.238;2022-12-18T01:08:05;101773.23;;;-2.42;65.33
56582;BME280;42463;52.214;21.238;2022-12-18T01:10:31;101774.02;;;-2.45;65.15
56582;BME280;42463;52.214;21.238;2022-12-18T01:12:57;101777.34;;;-2.44;65.31
56582;BME280;42463;52.214;21.238;2022-12-18T01:15:23;101785.15;;;-2.42;65.12
56582;BME280;42463;52.214;21.238;2022-12-18T01:17:49;101787.33;;;-2.41;65.26
56582;BME280;42463;52.214;21.238;2022-12-18T01:20:16;101786.30;;;-2.38;65.26
56582;BME280;42463;52.214;21.238;2022-12-18T01:22:41;101787.64;;;-2.41;64.61
56582;BME280;42463;52.214;21.238;2022-12-18T01:25:14;101785.41;;;-2.41;65.14
56582;BME280;42463;52.214;21.238;2022-12-18T01:27:40;101793.08;;;-2.48;64.80
56582;BME280;42463;52.214;21.238;2022-12-18T01:30:08;101793.61;;;-2.48;65.04
56582;BME280;42463;52.214;21.238;2022-12-18T01:32:36;101795.41;;;-2.44;65.21
56582;BME280;42463;52.214;21.238;2022-12-18T01:35:03;101801.15;;;-2.39;65.51
56582;BME280;42463;52.214;21.238;2022-12-18T01:37:29;101808.98;;;-2.40;65.03
56582;BME280;42463;52.214;21.238;2022-12-18T01:39:55;101813.69;;;-2.39;65.01
56582;BME280;42463;52.214;21.238;2022-12-18T01:42:20;101812.13;;;-2.35;65.32
56582;BME280;42463;52.214;21.238;2022-12-18T01:44:59;101815.66;;;-2.31;65.30
56582;BME280;42463;52.214;21.238;2022-12-18T01:47:28;101825.41;;;-2.29;65.21
56582;BME280;42463;52.214;21.238;2022-12-18T01:49:57;101833.10;;;-2.28;64.77
56582;BME280;42463;52.214;21.238;2022-12-18T01:52:26;101839.83;;;-2.44;64.45
56582;BME280;42463;52.214;21.238;2022-12-18T01:54:53;101843.70;;;-2.48;64.81
56582;BME280;42463;52.214;21.238;2022-12-18T01:57:21;101837.54;;;-2.50;64.96
56582;BME280;42463;52.214;21.238;2022-12-18T02:00:01;101830.91;;;-2.49;65.37
56582;BME280;42463;52.214;21.238;2022-12-18T02:03:44;101843.65;;;-2.45;65.00
56582;BME280;42463;52.214;21.238;2022-12-18T02:06:15;101847.06;;;-2.47;65.06
56582;BME280;42463;52.214;21.238;2022-12-18T02:08:49;101849.02;;;-2.47;65.39
56582;BME280;42463;52.214;21.238;2022-12-18T02:11:23;101848.17;;;-2.46;65.40
56582;BME280;42463;52.214;21.238;2022-12-18T02:14:03;101849.11;;;-2.45;65.59
56582;BME280;42463;52.214;21.238;2022-12-18T02:16:39;101856.08;;;-2.43;65.38
56582;BME280;42463;52.214;21.238;2022-12-18T02:19:20;101858.42;;;-2.44;65.42
56582;BME280;42463;52.214;21.238;2022-12-18T02:22:00;101866.75;;;-2.54;65.13
56582;BME280;42463;52.214;21.238;2022-12-18T02:24:35;101870.07;;;-2.55;65.59
56582;BME280;42463;52.214;21.238;2022-12-18T02:27:07;101879.92;;;-2.53;65.66
56582;BME280;42463;52.214;21.238;2022-12-18T02:29:37;101882.48;;;-2.51;65.60
56582;BME280;42463;52.214;21.238;2022-12-18T02:32:06;101885.25;;;-2.57;65.46
56582;BME280;42463;52.214;21.238;2022-12-18T02:34:37;101882.90;;;-2.58;65.80
56582;BME280;42463;52.214;21.238;2022-12-18T02:37:07;101880.21;;;-2.58;65.81
56582;BME280;42463;52.214;21.238;2022-12-18T02:39:38;101881.85;;;-2.54;65.99
56582;BME280;42463;52.214;21.238;2022-12-18T02:42:08;101887.95;;;-2.49;66.17
56582;BME280;42463;52.214;21.238;2022-12-18T02:44:34;101891.29;;;-2.45;65.85
56582;BME280;42463;52.214;21.238;2022-12-18T02:47:11;101888.44;;;-2.45;65.94
56582;BME280;42463;52.214;21.238;2022-12-18T02:49:44;101896.83;;;-2.49;65.52
56582;BME280;42463;52.214;21.238;2022-12-18T02:52:30;101901.61;;;-2.45;66.09
56582;BME280;42463;52.214;21.238;2022-12-18T02:55:12;101902.09;;;-2.43;65.48
56582;BME280;42463;52.214;21.238;2022-12-18T02:57:52;101901.17;;;-2.50;65.60
56582;BME280;42463;52.214;21.238;2022-12-18T03:00:24;101909.27;;;-2.52;65.57
56582;BME280;42463;52.214;21.238;2022-12-18T03:02:57;101914.56;;;-2.56;65.69
56582;BME280;42463;52.214;21.238;2022-12-18T03:05:31;101917.51;;;-2.53;65.61
56582;BME280;42463;52.214;21.238;2022-12-18T03:08:03;101925.64;;;-2.51;65.50
56582;BME280;42463;52.214;21.238;2022-12-18T03:10:37;101930.43;;;-2.47;65.63
56582;BME280;42463;52.214;21.238;2022-12-18T03:13:10;101934.34;;;-2.43;65.66
56582;BME280;42463;52.214;21.238;2022-12-18T03:15:40;101938.53;;;-2.38;65.41
56582;BME280;42463;52.214;21.238;2022-12-18T03:18:15;101942.80;;;-2.36;65.27
56582;BME280;42463;52.214;21.238;2022-12-18T03:20:43;101947.69;;;-2.36;65.28
56582;BME280;42463;52.214;21.238;2022-12-18T03:23:20;101945.54;;;-2.36;65.07
56582;BME280;42463;52.214;21.238;2022-12-18T03:25:50;101949.10;;;-2.34;65.07
56582;BME280;42463;52.214;21.238;2022-12-18T03:28:21;101943.34;;;-2.34;64.88
56582;BME280;42463;52.214;21.238;2022-12-18T03:30:55;101952.27;;;-2.43;64.45
56582;BME280;42463;52.214;21.238;2022-12-18T03:33:25;101954.09;;;-2.48;64.49
56582;BME280;42463;52.214;21.238;2022-12-18T03:35:58;101957.24;;;-2.50;64.58
56582;BME280;42463;52.214;21.238;2022-12-18T03:38:25;101957.60;;;-2.51;64.48
56582;BME280;42463;52.214;21.238;2022-12-18T03:40:59;101960.91;;;-2.49;64.72
56582;BME280;42463;52.214;21.238;2022-12-18T03:43:39;101971.89;;;-2.47;64.21
56582;BME280;42463;52.214;21.238;2022-12-18T03:46:15;101980.91;;;-2.49;63.95
56582;BME280;42463;52.214;21.238;2022-12-18T03:48:46;101985.09;;;-2.50;64.11
56582;BME280;42463;52.214;21.238;2022-12-18T03:51:23;101990.70;;;-2.49;64.17
56582;BME280;42463;52.214;21.238;2022-12-18T03:53:55;101989.23;;;-2.49;64.17
56582;BME280;42463;52.214;21.238;2022-12-18T03:56:29;101988.56;;;-2.51;63.73
56582;BME280;42463;52.214;21.238;2022-12-18T03:58:59;101982.75;;;-2.58;64.00
56582;BME280;42463;52.214;21.238;2022-12-18T04:01:32;101980.69;;;-2.61;64.25
56582;BME280;42463;52.214;21.238;2022-12-18T04:04:02;101983.20;;;-2.65;64.32
56582;BME280;42463;52.214;21.238;2022-12-18T04:06:33;101990.38;;;-2.64;64.15
56582;BME280;42463;52.214;21.238;2022-12-18T04:09:02;101998.75;;;-2.71;63.93
56582;BME280;42463;52.214;21.238;2022-12-18T04:11:31;102006.77;;;-2.70;64.28
56582;BME280;42463;52.214;21.238;2022-12-18T04:14:07;102005.82;;;-2.67;64.02
56582;BME280;42463;52.214;21.238;2022-12-18T04:16:37;102004.47;;;-2.62;64.15
56582;BME280;42463;52.214;21.238;2022-12-18T04:19:05;102001.89;;;-2.69;63.35
56582;BME280;42463;52.214;21.238;2022-12-18T04:21:37;102006.23;;;-2.76;63.48
56582;BME280;42463;52.214;21.238;2022-12-18T04:24:04;102009.77;;;-2.82;63.75
56582;BME280;42463;52.214;21.238;2022-12-18T04:26:31;102015.77;;;-2.84;63.81
56582;BME280;42463;52.214;21.238;2022-12-18T04:29:22;102026.84;;;-2.79;64.07
56582;BME280;42463;52.214;21.238;2022-12-18T04:32:01;102035.63;;;-2.82;63.67
56582;BME280;42463;52.214;21.238;2022-12-18T04:34:35;102037.29;;;-2.87;63.31
56582;BME280;42463;52.214;21.238;2022-12-18T04:37:19;102041.19;;;-2.85;64.05
56582;BME280;42463;52.214;21.238;2022-12-18T04:39:47;102048.44;;;-2.81;63.96
56582;BME280;42463;52.214;21.238;2022-12-18T04:42:20;102055.41;;;-2.77;63.85
56582;BME280;42463;52.214;21.238;2022-12-18T04:44:57;102053.02;;;-2.76;63.81
56582;BME280;42463;52.214;21.238;2022-12-18T04:47:26;102054.36;;;-2.75;63.80
56582;BME280;42463;52.214;21.238;2022-12-18T04:49:51;102059.10;;;-2.73;64.02
56582;BME280;42463;52.214;21.238;2022-12-18T04:52:19;102059.67;;;-2.69;63.89
56582;BME280;42463;52.214;21.238;2022-12-18T04:54:48;102062.98;;;-2.69;63.80
56582;BME280;42463;52.214;21.238;2022-12-18T04:57:19;102067.56;;;-2.66;63.81
56582;BME280;42463;52.214;21.238;2022-12-18T04:59:46;102072.16;;;-2.62;63.78
56582;BME280;42463;52.214;21.238;2022-12-18T05:02:17;102068.34;;;-2.56;63.93
56582;BME280;42463;52.214;21.238;2022-12-18T05:04:44;102066.91;;;-2.54;63.49
56582;BME280;42463;52.214;21.238;2022-12-18T05:07:12;102070.13;;;-2.57;63.33
56582;BME280;42463;52.214;21.238;2022-12-18T05:09:38;102076.83;;;-2.63;63.39
56582;BME280;42463;52.214;21.238;2022-12-18T05:12:05;102073.56;;;-2.68;63.02
56582;BME280;42463;52.214;21.238;2022-12-18T05:14:31;102084.84;;;-2.67;63.11
56582;BME280;42463;52.214;21.238;2022-12-18T05:16:58;102090.27;;;-2.69;63.24
56582;BME280;42463;52.214;21.238;2022-12-18T05:19:30;102088.27;;;-2.66;63.75
56582;BME280;42463;52.214;21.238;2022-12-18T05:21:56;102095.75;;;-2.60;63.70
56582;BME280;42463;52.214;21.238;2022-12-18T05:24:29;102099.27;;;-2.56;63.70
56582;BME280;42463;52.214;21.238;2022-12-18T05:26:58;102101.66;;;-2.59;63.16
56582;BME280;42463;52.214;21.238;2022-12-18T05:29:24;102106.98;;;-2.65;63.39
56582;BME280;42463;52.214;21.238;2022-12-18T05:31:54;102108.10;;;-2.64;63.20
56582;BME280;42463;52.214;21.238;2022-12-18T05:34:24;102116.67;;;-2.65;63.01
56582;BME280;42463;52.214;21.238;2022-12-18T05:36:51;102123.65;;;-2.78;62.44
56582;BME280;42463;52.214;21.238;2022-12-18T05:39:20;102127.09;;;-2.85;63.17
56582;BME280;42463;52.214;21.238;2022-12-18T05:41:50;102107.31;;;-2.99;63.27
56582;BME280;42463;52.214;21.238;2022-12-18T05:44:22;102137.23;;;-2.88;63.09
56582;BME280;42463;52.214;21.238;2022-12-18T05:46:49;102134.50;;;-2.94;63.02
56582;BME280;42463;52.214;21.238;2022-12-18T05:49:16;102130.60;;;-3.03;62.45
56582;BME280;42463;52.214;21.238;2022-12-18T05:51:46;102132.78;;;-3.17;62.66
56582;BME280;42463;52.214;21.238;2022-12-18T05:54:13;102134.87;;;-3.32;62.94
56582;BME280;42463;52.214;21.238;2022-12-18T05:56:39;102140.14;;;-3.42;62.99
56582;BME280;42463;52.214;21.238;2022-12-18T05:59:05;102151.49;;;-3.45;63.61
56582;BME280;42463;52.214;21.238;2022-12-18T06:01:33;102155.41;;;-3.41;63.83
56582;BME280;42463;52.214;21.238;2022-12-18T06:04:01;102157.96;;;-3.39;63.43
56582;BME280;42463;52.214;21.238;2022-12-18T06:06:29;102161.31;;;-3.35;63.92
56582;BME280;42463;52.214;21.238;2022-12-18T06:08:56;102162.59;;;-3.33;63.73
56582;BME280;42463;52.214;21.238;2022-12-18T06:11:29;102150.98;;;-3.43;63.81
56582;BME280;42463;52.214;21.238;2022-12-18T06:13:58;102178.17;;;-3.23;63.88
56582;BME280;42463;52.214;21.238;2022-12-18T06:16:27;102182.36;;;-3.17;63.77
56582;BME280;42463;52.214;21.238;2022-12-18T06:18:53;102184.05;;;-3.14;63.57
56582;BME280;42463;52.214;21.238;2022-12-18T06:21:23;102184.23;;;-3.14;63.05
56582;BME280;42463;52.214;21.238;2022-12-18T06:23:50;102187.19;;;-3.18;63.32
56582;BME280;42463;52.214;21.238;2022-12-18T06:26:16;102184.46;;;-3.19;63.25
56582;BME280;42463;52.214;21.238;2022-12-18T06:28:43;102191.65;;;-3.16;63.27
56582;BME280;42463;52.214;21.238;2022-12-18T06:31:08;102195.55;;;-3.16;62.60
56582;BME280;42463;52.214;21.238;2022-12-18T06:33:36;102202.00;;;-3.19;62.94
56582;BME280;42463;52.214;21.238;2022-12-18T06:36:05;102204.59;;;-3.23;62.72
56582;BME280;42463;52.214;21.238;2022-12-18T06:38:30;102210.23;;;-3.27;62.69
56582;BME280;42463;52.214;21.238;2022-12-18T06:40:57;102221.81;;;-3.33;62.55
56582;BME280;42463;52.214;21.238;2022-12-18T06:43:23;102228.05;;;-3.33;62.82
56582;BME280;42463;52.214;21.238;2022-12-18T06:45:49;102235.37;;;-3.36;62.64
56582;BME280;42463;52.214;21.238;2022-12-18T06:48:16;102242.62;;;-3.43;63.33
56582;BME280;42463;52.214;21.238;2022-12-18T06:50:45;102246.02;;;-3.44;63.24
56582;BME280;42463;52.214;21.238;2022-12-18T06:53:18;102248.43;;;-3.41;63.46
56582;BME280;42463;52.214;21.238;2022-12-18T06:55:48;102245.57;;;-3.38;63.47
56582;BME280;42463;52.214;21.238;2022-12-18T06:58:25;102246.67;;;-3.41;63.56
56582;BME280;42463;52.214;21.238;2022-12-18T07:01:03;102252.98;;;-3.35;64.02
56582;BME280;42463;52.214;21.238;2022-12-18T07:03:34;102256.93;;;-3.32;63.81
56582;BME280;42463;52.214;21.238;2022-12-18T07:06:06;102262.87;;;-3.33;63.74
56582;BME280;42463;52.214;21.238;2022-12-18T07:08:32;102264.28;;;-3.38;63.75
56582;BME280;42463;52.214;21.238;2022-12-18T07:10:58;102272.50;;;-3.45;63.83
56582;BME280;42463;52.214;21.238;2022-12-18T07:13:24;102277.77;;;-3.54;63.88
56582;BME280;42463;52.214;21.238;2022-12-18T07:15:51;102282.66;;;-3.63;64.04
56582;BME280;42463;52.214;21.238;2022-12-18T07:18:20;102284.42;;;-3.63;64.72
56582;BME280;42463;52.214;21.238;2022-12-18T07:20:45;102296.37;;;-3.57;64.68
56582;BME280;42463;52.214;21.238;2022-12-18T07:23:13;102301.77;;;-3.51;64.72
56582;BME280;42463;52.214;21.238;2022-12-18T07:25:48;102305.55;;;-3.45;64.53
56582;BME280;42463;52.214;21.238;2022-12-18T07:28:26;102306.94;;;-3.40;64.54
56582;BME280;42463;52.214;21.238;2022-12-18T07:30:52;102309.16;;;-3.37;64.52
56582;BME280;42463;52.214;21.238;2022-12-18T07:33:18;102309.46;;;-3.34;64.43
56582;BME280;42463;52.214;21.238;2022-12-18T07:35:44;102312.08;;;-3.34;64.37
56582;BME280;42463;52.214;21.238;2022-12-18T07:38:09;102314.88;;;-3.31;64.61
56582;BME280;42463;52.214;21.238;2022-12-18T07:40:39;102310.78;;;-3.28;64.40
56582;BME280;42463;52.214;21.238;2022-12-18T07:43:04;102312.17;;;-3.23;64.74
56582;BME280;42463;52.214;21.238;2022-12-18T07:45:29;102311.17;;;-3.17;64.71
56582;BME280;42463;52.214;21.238;2022-12-18T07:47:56;102314.13;;;-3.09;64.96
56582;BME280;42463;52.214;21.238;2022-12-18T07:50:22;102315.91;;;-3.03;64.77
56582;BME280;42463;52.214;21.238;2022-12-18T07:52:48;102323.91;;;-2.99;64.28
56582;BME280;42463;52.214;21.238;2022-12-18T07:55:13;102328.23;;;-3.04;64.03
56582;BME280;42463;52.214;21.238;2022-12-18T07:57:38;102330.77;;;-3.09;64.07
56582;BME280;42463;52.214;21.238;2022-12-18T08:00:04;102329.01;;;-3.12;63.93
56582;BME280;42463;52.214;21.238;2022-12-18T08:02:37;102317.51;;;-3.21;64.10
56582;BME280;42463;52.214;21.238;2022-12-18T08:05:03;102338.86;;;-3.13;64.01
56582;BME280;42463;52.214;21.238;2022-12-18T08:07:29;102350.50;;;-3.13;64.23
56582;BME280;42463;52.214;21.238;2022-12-18T08:09:53;102357.73;;;-3.15;64.00
56582;BME280;42463;52.214;21.238;2022-12-18T08:12:18;102358.21;;;-3.19;64.33
56582;BME280;42463;52.214;21.238;2022-12-18T08:14:48;102356.56;;;-3.25;64.08
56582;BME280;42463;52.214;21.238;2022-12-18T08:17:14;102362.70;;;-3.38;64.14
56582;BME280;42463;52.214;21.238;2022-12-18T08:19:39;102368.33;;;-3.49;64.63
56582;BME280;42463;52.214;21.238;2022-12-18T08:22:04;102367.77;;;-3.51;65.02
56582;BME280;42463;52.214;21.238;2022-12-18T08:24:29;102367.82;;;-3.45;65.47
56582;BME280;42463;52.214;21.238;2022-12-18T08:26:55;102371.86;;;-3.33;65.37
56582;BME280;42463;52.214;21.238;2022-12-18T08:29:21;102378.62;;;-3.31;64.92
56582;BME280;42463;52.214;21.238;2022-12-18T08:31:47;102379.42;;;-3.37;64.73
56582;BME280;42463;52.214;21.238;2022-12-18T08:34:13;102385.88;;;-3.38;65.33
56582;BME280;42463;52.214;21.238;2022-12-18T08:36:40;102389.91;;;-3.36;65.17
56582;BME280;42463;52.214;21.238;2022-12-18T08:39:09;102381.54;;;-3.40;65.12
56582;BME280;42463;52.214;21.238;2022-12-18T08:41:34;102394.30;;;-3.29;65.46
56582;BME280;42463;52.214;21.238;2022-12-18T08:43:59;102399.42;;;-3.19;65.51
56582;BME280;42463;52.214;21.238;2022-12-18T08:46:50;102405.21;;;-3.13;65.22
56582;BME280;42463;52.214;21.238;2022-12-18T08:49:18;102403.46;;;-3.16;64.96
56582;BME280;42463;52.214;21.238;2022-12-18T08:51:44;102409.21;;;-3.24;65.09
56582;BME280;42463;52.214;21.238;2022-12-18T08:54:12;102407.03;;;-3.28;65.36
56582;BME280;42463;52.214;21.238;2022-12-18T08:56:38;102412.29;;;-3.20;65.77
56582;BME280;42463;52.214;21.238;2022-12-18T08:59:06;102415.83;;;-3.08;65.93
56582;BME280;42463;52.214;21.238;2022-12-18T09:01:32;102416.46;;;-3.05;65.79
56582;BME280;42463;52.214;21.238;2022-12-18T09:03:56;102414.77;;;-3.02;65.82
56582;BME280;42463;52.214;21.238;2022-12-18T09:06:22;102406.76;;;-2.96;65.81
56582;BME280;42463;52.214;21.238;2022-12-18T09:08:48;102413.09;;;-2.89;66.06
56582;BME280;42463;52.214;21.238;2022-12-18T09:11:19;102421.24;;;-2.78;66.06
56582;BME280;42463;52.214;21.238;2022-12-18T09:13:44;102423.14;;;-2.68;65.67
56582;BME280;42463;52.214;21.238;2022-12-18T09:16:10;102424.89;;;-2.65;65.48
56582;BME280;42463;52.214;21.238;2022-12-18T09:18:38;102424.21;;;-2.61;65.23
56582;BME280;42463;52.214;21.238;2022-12-18T09:21:09;102424.02;;;-2.61;65.41
56582;BME280;42463;52.214;21.238;2022-12-18T09:23:36;102431.35;;;-2.55;65.69
56582;BME280;42463;52.214;21.238;2022-12-18T09:26:01;102431.81;;;-2.52;65.22
56582;BME280;42463;52.214;21.238;2022-12-18T09:28:30;102427.23;;;-2.55;65.00
56582;BME280;42463;52.214;21.238;2022-12-18T09:30:55;102427.31;;;-2.53;65.58
56582;BME280;42463;52.214;21.238;2022-12-18T09:33:20;102430.42;;;-2.55;65.26
56582;BME280;42463;52.214;21.238;2022-12-18T09:35:46;102426.34;;;-2.59;65.28
56582;BME280;42463;52.214;21.238;2022-12-18T09:38:16;102429.34;;;-2.57;65.60
56582;BME280;42463;52.214;21.238;2022-12-18T09:40:44;102437.77;;;-2.49;65.88
56582;BME280;42463;52.214;21.238;2022-12-18T09:43:18;102438.58;;;-2.48;65.67
56582;BME280;42463;52.214;21.238;2022-12-18T09:45:47;102432.29;;;-2.49;65.46
56582;BME280;42463;52.214;21.238;2022-12-18T09:48:18;102434.42;;;-2.51;65.63
56582;BME280;42463;52.214;21.238;2022-12-18T09:50:45;102435.84;;;-2.49;65.65
56582;BME280;42463;52.214;21.238;2022-12-18T09:53:15;102439.08;;;-2.50;65.61
56582;BME280;42463;52.214;21.238;2022-12-18T09:55:46;102444.69;;;-2.47;65.69
56582;BME280;42463;52.214;21.238;2022-12-18T09:58:20;102439.85;;;-2.42;65.96
56582;BME280;42463;52.214;21.238;2022-12-18T10:00:48;102439.64;;;-2.33;65.60
56582;BME280;42463;52.214;21.238;2022-12-18T10:03:16;102442.23;;;-2.31;65.28
56582;BME280;42463;52.214;21.238;2022-12-18T10:05:46;102441.79;;;-2.28;65.45
56582;BME280;42463;52.214;21.238;2022-12-18T10:08:18;102443.91;;;-2.23;65.40
56582;BME280;42463;52.214;21.238;2022-12-18T10:10:49;102439.27;;;-2.16;65.49
56582;BME280;42463;52.214;21.238;2022-12-18T10:13:36;102435.34;;;-2.07;65.65
56582;BME280;42463;52.214;21.238;2022-12-18T10:16:13;102433.30;;;-1.95;65.69
56582;BME280;42463;52.214;21.238;2022-12-18T10:18:58;102430.40;;;-1.83;65.61
56582;BME280;42463;52.214;21.238;2022-12-18T10:21:32;102432.27;;;-1.71;65.23
56582;BME280;42463;52.214;21.238;2022-12-18T10:24:08;102434.87;;;-1.71;64.42
56582;BME280;42463;52.214;21.238;2022-12-18T10:26:37;102437.75;;;-1.82;64.15
56582;BME280;42463;52.214;21.238;2022-12-18T10:29:06;102449.02;;;-1.96;64.15
56582;BME280;42463;52.214;21.238;2022-12-18T10:31:34;102446.15;;;-1.98;64.92
56582;BME280;42463;52.214;21.238;2022-12-18T10:34:00;102454.17;;;-1.87;65.22
56582;BME280;42463;52.214;21.238;2022-12-18T10:36:26;102456.75;;;-1.76;65.27
56582;BME280;42463;52.214;21.238;2022-12-18T10:38:54;102459.48;;;-1.66;64.71
56582;BME280;42463;52.214;21.238;2022-12-18T10:41:28;102456.31;;;-1.62;64.56
56582;BME280;42463;52.214;21.238;2022-12-18T10:44:12;102453.25;;;-1.59;64.53
56582;BME280;42463;52.214;21.238;2022-12-18T10:46:40;102448.17;;;-1.47;64.52
56582;BME280;42463;52.214;21.238;2022-12-18T10:49:17;102446.86;;;-1.38;64.27
56582;BME280;42463;52.214;21.238;2022-12-18T10:51:45;102444.83;;;-1.34;63.84
56582;BME280;42463;52.214;21.238;2022-12-18T10:54:16;102448.09;;;-1.29;63.65
56582;BME280;42463;52.214;21.238;2022-12-18T10:56:43;102452.48;;;-1.24;63.68
56582;BME280;42463;52.214;21.238;2022-12-18T10:59:12;102455.38;;;-1.29;63.11
56582;BME280;42463;52.214;21.238;2022-12-18T11:01:50;102459.34;;;-1.40;62.50
56582;BME280;42463;52.214;21.238;2022-12-18T11:04:20;102457.45;;;-1.54;62.70
56582;BME280;42463;52.214;21.238;2022-12-18T11:06:56;102462.53;;;-1.55;63.54
56582;BME280;42463;52.214;21.238;2022-12-18T11:09:26;102458.56;;;-1.54;63.20
56582;BME280;42463;52.214;21.238;2022-12-18T11:11:55;102457.77;;;-1.57;63.09
56582;BME280;42463;52.214;21.238;2022-12-18T11:14:23;102464.07;;;-1.64;63.30
56582;BME280;42463;52.214;21.238;2022-12-18T11:16:51;102466.67;;;-1.67;63.51
56582;BME280;42463;52.214;21.238;2022-12-18T11:19:34;102470.55;;;-1.65;63.93
56582;BME280;42463;52.214;21.238;2022-12-18T11:22:01;102473.54;;;-1.53;64.25
56582;BME280;42463;52.214;21.238;2022-12-18T11:24:31;102481.13;;;-1.46;63.99
56582;BME280;42463;52.214;21.238;2022-12-18T11:27:00;102482.13;;;-1.43;63.85
56582;BME280;42463;52.214;21.238;2022-12-18T11:29:32;102489.33;;;-1.42;63.57
56582;BME280;42463;52.214;21.238;2022-12-18T11:32:20;102488.64;;;-1.45;64.18
56582;BME280;42463;52.214;21.238;2022-12-18T11:34:51;102484.48;;;-1.46;63.51
56582;BME280;42463;52.214;21.238;2022-12-18T11:37:19;102482.95;;;-1.51;63.43
56582;BME280;42463;52.214;21.238;2022-12-18T11:39:49;102477.88;;;-1.50;63.48
56582;BME280;42463;52.214;21.238;2022-12-18T11:42:20;102477.54;;;-1.48;63.12
56582;BME280;42463;52.214;21.238;2022-12-18T11:44:52;102474.45;;;-1.45;63.38
56582;BME280;42463;52.214;21.238;2022-12-18T11:47:27;102471.97;;;-1.39;63.26
56582;BME280;42463;52.214;21.238;2022-12-18T11:49:54;102481.88;;;-1.40;62.86
56582;BME280;42463;52.214;21.238;2022-12-18T11:52:24;102485.10;;;-1.45;62.78
56582;BME280;42463;52.214;21.238;2022-12-18T11:54:52;102481.71;;;-1.51;62.61
56582;BME280;42463;52.214;21.238;2022-12-18T11:57:27;102486.81;;;-1.55;63.00
56582;BME280;42463;52.214;21.238;2022-12-18T12:00:03;102480.73;;;-1.61;62.69
56582;BME280;42463;52.214;21.238;2022-12-18T12:02:46;102469.86;;;-1.63;62.98
56582;BME280;42463;52.214;21.238;2022-12-18T12:05:31;102477.56;;;-1.59;63.30
56582;BME280;42463;52.214;21.238;2022-12-18T12:08:05;102485.25;;;-1.55;63.15
56582;BME280;42463;52.214;21.238;2022-12-18T12:10:43;102490.61;;;-1.58;63.19
56582;BME280;42463;52.214;21.238;2022-12-18T12:13:22;102490.66;;;-1.63;63.17
56582;BME280;42463;52.214;21.238;2022-12-18T12:15:56;102493.81;;;-1.65;63.44
56582;BME280;42463;52.214;21.238;2022-12-18T12:18:28;102491.10;;;-1.62;63.34
56582;BME280;42463;52.214;21.238;2022-12-18T12:21:01;102494.16;;;-1.60;63.35
56582;BME280;42463;52.214;21.238;2022-12-18T12:23:45;102502.12;;;-1.57;63.33
56582;BME280;42463;52.214;21.238;2022-12-18T12:26:25;102509.23;;;-1.64;63.25
56582;BME280;42463;52.214;21.238;2022-12-18T12:28:55;102509.68;;;-1.66;63.17
56582;BME280;42463;52.214;21.238;2022-12-18T12:31:30;102510.52;;;-1.61;63.61
56582;BME280;42463;52.214;21.238;2022-12-18T12:34:04;102502.52;;;-1.54;63.44
56582;BME280;42463;52.214;21.238;2022-12-18T12:36:40;102502.58;;;-1.48;63.44
56582;BME280;42463;52.214;21.238;2022-12-18T12:39:10;102505.81;;;-1.44;63.28
56582;BME280;42463;52.214;21.238;2022-12-18T12:41:40;102504.18;;;-1.40;63.42
56582;BME280;42463;52.214;21.238;2022-12-18T12:44:29;102503.79;;;-1.30;63.42
56582;BME280;42463;52.214;21.238;2022-12-18T12:47:16;102509.61;;;-1.25;63.02
56582;BME280;42463;52.214;21.238;2022-12-18T12:49:56;102522.83;;;-1.24;62.70
56582;BME280;42463;52.214;21.238;2022-12-18T12:52:30;102533.97;;;-1.28;62.78
56582;BME280;42463;52.214;21.238;2022-12-18T12:54:58;102533.27;;;-1.29;62.57
56582;BME280;42463;52.214;21.238;2022-12-18T12:57:33;102534.09;;;-1.27;62.62